createdAt,value
2023-03-10T00:00:03.762Z,16.92
2023-03-10T00:00:15.764Z,16.92
2023-03-10T00:00:26.747Z,16.92
2023-03-10T00:00:37.719Z,16.92
2023-03-10T00:00:48.719Z,16.92
2023-03-10T00:00:59.813Z,16.93
2023-03-10T00:01:11.762Z,16.93
2023-03-10T00:01:22.762Z,16.91
2023-03-10T00:01:33.784Z,16.89
2023-03-10T00:01:44.769Z,16.91
2023-03-10T00:01:55.761Z,16.92
2023-03-10T00:02:06.736Z,16.92
2023-03-10T00:02:17.815Z,16.92
2023-03-10T00:02:29.754Z,16.92
2023-03-10T00:02:40.736Z,16.92
2023-03-10T00:02:51.737Z,16.92
2023-03-10T00:03:02.721Z,16.91
2023-03-10T00:03:13.823Z,16.93
2023-03-10T00:03:25.773Z,16.92
2023-03-10T00:03:36.741Z,16.92
2023-03-10T00:03:47.723Z,16.92
2023-03-10T00:03:58.748Z,16.93
2023-03-10T00:04:09.808Z,16.92
2023-03-10T00:04:20.829Z,16.93
2023-03-10T00:04:32.827Z,16.93
2023-03-10T00:04:43.818Z,16.93
2023-03-10T00:04:55.906Z,16.92
2023-03-10T00:05:07.799Z,16.92
2023-03-10T00:05:19.813Z,16.93
2023-03-10T00:05:31.868Z,16.92
2023-03-10T00:05:42.747Z,16.92
2023-03-10T00:05:53.820Z,16.93
2023-03-10T00:06:04.793Z,16.92
2023-03-10T00:06:16.736Z,16.93
2023-03-10T00:06:27.731Z,16.93
2023-03-10T00:06:38.719Z,16.92
2023-03-10T00:06:49.799Z,16.91
2023-03-10T00:07:01.752Z,16.92
2023-03-10T00:07:12.759Z,16.94
2023-03-10T00:07:23.761Z,16.94
2023-03-10T00:07:34.748Z,16.94
2023-03-10T00:07:45.746Z,16.92
2023-03-10T00:07:56.756Z,16.93
2023-03-10T00:08:07.743Z,16.92
2023-03-10T00:08:18.735Z,16.93
2023-03-10T00:08:29.768Z,16.92
2023-03-10T00:08:40.764Z,16.92
2023-03-10T00:10:57.640Z,16.83
2023-03-10T00:11:09.599Z,16.90
2023-03-10T00:11:20.611Z,16.92
2023-03-10T00:11:31.586Z,16.92
2023-03-10T00:11:42.581Z,16.92
2023-03-10T00:11:53.567Z,16.92
2023-03-10T00:12:04.567Z,16.92
2023-03-10T00:12:15.664Z,16.91
2023-03-10T00:12:27.603Z,16.92
2023-03-10T00:12:38.598Z,16.92
2023-03-10T00:12:49.644Z,16.92
2023-03-10T00:13:01.613Z,16.93
2023-03-10T00:13:13.590Z,16.93
2023-03-10T00:13:24.582Z,16.93
2023-03-10T00:13:35.598Z,16.93
2023-03-10T00:13:46.599Z,16.93
2023-03-10T00:13:57.591Z,16.94
2023-03-10T00:25:06.992Z,16.55
2023-03-10T00:25:18.636Z,16.76
2023-03-10T00:25:30.595Z,16.80
2023-03-10T00:25:41.573Z,16.81
2023-03-10T00:25:52.552Z,16.82
2023-03-10T00:26:03.652Z,16.83
2023-03-10T00:26:15.613Z,16.84
2023-03-10T00:26:26.609Z,16.84
2023-03-10T00:26:37.615Z,16.85
2023-03-10T00:26:48.585Z,16.86
2023-03-10T00:26:59.582Z,16.86
2023-03-10T00:27:10.565Z,16.86
2023-03-10T00:27:21.566Z,16.86
2023-03-10T00:27:32.563Z,16.87
2023-03-10T00:27:43.562Z,16.87
2023-03-10T00:27:54.657Z,16.87
2023-03-10T00:28:06.610Z,16.87
2023-03-10T00:28:17.600Z,16.89
2023-03-10T00:28:28.585Z,16.89
2023-03-10T00:28:39.586Z,16.90
2023-03-10T00:28:50.574Z,16.90
2023-03-10T00:29:01.554Z,16.90
2023-03-10T00:29:12.610Z,16.91
2023-03-10T00:29:24.603Z,16.89
2023-03-10T00:29:35.606Z,16.91
2023-03-10T00:29:46.585Z,16.89
2023-03-10T00:29:57.571Z,16.90
2023-03-10T00:30:08.555Z,16.91
2023-03-10T00:30:19.565Z,16.92
2023-03-10T00:30:32.942Z,16.93
2023-03-10T00:30:41.619Z,16.92
2023-03-10T00:30:52.626Z,16.92
2023-03-10T00:31:04.615Z,16.93
2023-03-10T00:31:15.644Z,16.93
2023-03-10T00:31:26.676Z,16.93
2023-03-10T00:31:37.714Z,16.93
2023-03-10T00:31:49.608Z,16.93
2023-03-10T00:32:01.577Z,16.92
2023-03-10T00:32:12.604Z,16.91
2023-03-10T00:32:23.609Z,16.93
2023-03-10T00:32:35.617Z,16.93
2023-03-10T00:32:47.644Z,16.92
2023-03-10T00:32:58.596Z,16.94
2023-03-10T00:33:09.572Z,16.94
2023-03-10T00:33:20.557Z,16.93
2023-03-10T00:33:31.636Z,16.93
2023-03-10T00:33:43.604Z,16.92
2023-03-10T00:33:54.599Z,16.92
2023-03-10T00:34:05.606Z,16.92
2023-03-10T00:34:16.599Z,16.93
2023-03-10T00:34:27.577Z,16.93
2023-03-10T00:34:38.569Z,16.93
2023-03-10T00:34:49.570Z,16.93
2023-03-10T00:35:00.574Z,16.93
2023-03-10T00:35:11.567Z,16.92
2023-03-10T00:35:22.574Z,16.93
2023-03-10T00:35:33.607Z,16.91
2023-03-10T00:35:44.630Z,16.92
2023-03-10T00:35:56.626Z,16.92
2023-03-10T00:36:08.660Z,16.93
2023-03-10T00:36:19.583Z,16.94
2023-03-10T00:36:30.577Z,16.94
2023-03-10T00:36:41.561Z,16.93
2023-03-10T00:36:52.644Z,16.94
2023-03-10T00:37:04.606Z,16.94
2023-03-10T00:37:15.593Z,16.94
2023-03-10T00:37:26.581Z,16.93
2023-03-10T00:37:37.598Z,16.93
2023-03-10T00:37:48.645Z,16.93
2023-03-10T00:38:00.609Z,16.95
2023-03-10T00:38:12.598Z,16.94
2023-03-10T00:38:23.592Z,16.94
2023-03-10T00:38:34.603Z,16.93
2023-03-10T00:38:45.595Z,16.92
2023-03-10T00:38:56.572Z,16.94
2023-03-10T00:39:10.078Z,16.95
2023-03-10T00:39:18.588Z,16.93
2023-03-10T00:39:29.576Z,16.93
2023-03-10T00:39:40.576Z,16.94
2023-03-10T00:39:51.571Z,16.93
2023-03-10T00:40:02.585Z,16.94
2023-03-10T00:40:13.580Z,16.95
2023-03-10T00:40:24.581Z,16.94
2023-03-10T00:40:35.558Z,16.95
2023-03-10T00:40:46.628Z,16.94
2023-03-10T00:40:57.615Z,16.94
2023-03-10T00:41:08.629Z,16.92
2023-03-10T00:41:20.586Z,16.94
2023-03-10T00:41:31.575Z,16.94
2023-03-10T00:41:42.568Z,16.94
2023-03-10T00:41:53.570Z,16.93
2023-03-10T00:42:04.659Z,16.94
2023-03-10T00:42:16.613Z,16.94
2023-03-10T00:42:28.600Z,16.94
2023-03-10T00:42:39.633Z,16.93
2023-03-10T00:42:50.609Z,16.93
2023-03-10T00:43:01.593Z,16.93
2023-03-10T00:43:12.588Z,16.93
2023-03-10T00:43:23.613Z,16.94
2023-03-10T00:43:35.589Z,16.94
2023-03-10T00:43:46.576Z,16.94
2023-03-10T00:43:57.569Z,16.95
2023-03-10T00:44:08.652Z,16.94
2023-03-10T00:44:20.625Z,16.94
2023-03-10T00:44:31.562Z,16.95
2023-03-10T00:44:42.649Z,16.95
2023-03-10T00:44:54.605Z,16.95
2023-03-10T00:45:05.597Z,16.95
2023-03-10T00:45:16.609Z,16.96
2023-03-10T00:45:27.590Z,16.94
2023-03-10T00:45:38.587Z,16.94
2023-03-10T00:45:49.601Z,16.94
2023-03-10T00:46:00.630Z,16.95
2023-03-10T00:46:11.673Z,16.94
2023-03-10T00:46:22.654Z,16.93
2023-03-10T00:46:33.608Z,16.94
2023-03-10T00:46:44.690Z,16.94
2023-03-10T00:46:55.619Z,16.94
2023-03-10T00:47:06.593Z,16.94
2023-03-10T00:47:18.580Z,16.95
2023-03-10T00:47:29.658Z,16.94
2023-03-10T00:47:41.656Z,16.94
2023-03-10T00:47:53.617Z,16.93
2023-03-10T00:48:04.603Z,16.94
2023-03-10T00:48:15.616Z,16.94
2023-03-10T00:48:27.598Z,16.95
2023-03-10T00:48:39.595Z,16.95
2023-03-10T00:53:25.907Z,16.60
2023-03-10T00:53:36.607Z,16.82
2023-03-10T00:53:47.584Z,16.82
2023-03-10T00:53:58.576Z,16.86
2023-03-10T00:54:09.657Z,16.86
2023-03-10T00:54:21.624Z,16.87
2023-03-10T00:54:33.600Z,16.87
2023-03-10T00:54:44.598Z,16.86
2023-03-10T00:54:55.599Z,16.87
2023-03-10T01:12:27.698Z,16.74
2023-03-10T01:12:38.593Z,16.82
2023-03-10T01:12:49.596Z,16.83
2023-03-10T01:13:00.586Z,16.83
2023-03-10T01:13:11.610Z,16.84
2023-03-10T01:13:22.613Z,16.85
2023-03-10T01:13:33.608Z,16.87
2023-03-10T01:13:44.608Z,16.87
2023-03-10T01:13:55.588Z,16.87
2023-03-10T01:14:07.595Z,16.87
2023-03-10T01:14:18.593Z,16.87
2023-03-10T01:14:29.592Z,16.88
2023-03-10T01:14:40.581Z,16.89
2023-03-10T01:14:51.564Z,16.88
2023-03-10T01:15:02.561Z,16.89
2023-03-10T01:15:13.649Z,16.89
2023-03-10T01:15:25.602Z,16.89
2023-03-10T01:15:36.606Z,16.89
2023-03-10T01:15:48.692Z,16.90
2023-03-10T01:15:59.608Z,16.89
2023-03-10T01:16:11.642Z,16.90
2023-03-10T01:16:22.687Z,16.90
2023-03-10T01:16:34.723Z,16.92
2023-03-10T01:16:46.597Z,16.90
2023-03-10T01:16:57.613Z,16.92
2023-03-10T01:17:09.588Z,16.92
2023-03-10T01:17:20.578Z,16.93
2023-03-10T01:17:31.597Z,16.93
2023-03-10T01:17:42.586Z,16.92
2023-03-10T01:17:53.567Z,16.92
2023-03-10T01:18:04.584Z,16.94
2023-03-10T01:18:15.604Z,16.92
2023-03-10T01:18:26.602Z,16.93
2023-03-10T01:18:37.608Z,16.94
2023-03-10T01:18:49.612Z,16.94
2023-03-10T01:19:00.607Z,16.92
2023-03-10T01:19:11.585Z,16.94
2023-03-10T01:19:22.591Z,16.93
2023-03-10T01:19:33.581Z,16.94
2023-03-10T01:19:44.583Z,16.93
2023-03-10T01:19:55.612Z,16.94
2023-03-10T01:20:06.610Z,16.95
2023-03-10T01:20:17.610Z,16.95
2023-03-10T01:20:28.599Z,16.94
2023-03-10T01:20:39.605Z,16.92
2023-03-10T01:20:50.593Z,16.93
2023-03-10T01:21:01.609Z,16.94
2023-03-10T01:21:12.587Z,16.93
2023-03-10T01:21:23.576Z,16.95
2023-03-10T01:21:34.588Z,16.94
2023-03-10T01:21:45.577Z,16.94
2023-03-10T01:21:56.566Z,16.93
2023-03-10T01:22:07.641Z,16.94
2023-03-10T01:22:19.583Z,16.93
2023-03-10T01:22:30.609Z,16.93
2023-03-10T01:22:41.586Z,16.94
2023-03-10T01:22:52.563Z,16.93
2023-03-10T01:23:03.583Z,16.94
2023-03-10T01:23:14.585Z,16.94
2023-03-10T01:23:26.587Z,16.95
2023-03-10T01:23:37.586Z,16.95
2023-03-10T01:23:48.580Z,16.94
2023-03-10T01:23:59.565Z,16.94
2023-03-10T01:24:10.561Z,16.95
2023-03-10T01:24:21.641Z,16.94
2023-03-10T01:24:33.610Z,16.95
2023-03-10T01:24:44.604Z,16.95
2023-03-10T01:24:55.595Z,16.95
2023-03-10T01:25:06.584Z,16.96
2023-03-10T01:25:17.594Z,16.95
2023-03-10T01:25:28.613Z,16.96
2023-03-10T01:25:40.599Z,16.94
2023-03-10T01:25:51.598Z,16.95
2023-03-10T01:26:02.587Z,16.95
2023-03-10T01:26:13.571Z,16.95
2023-03-10T01:26:24.663Z,16.96
2023-03-10T01:26:36.624Z,16.97
2023-03-10T01:26:47.627Z,16.97
2023-03-10T01:26:58.618Z,16.94
2023-03-10T01:27:09.620Z,16.94
2023-03-10T01:27:20.602Z,16.96
2023-03-10T01:27:31.615Z,16.95
2023-03-10T01:27:42.605Z,16.96
2023-03-10T01:27:53.604Z,16.95
2023-03-10T01:28:04.589Z,16.96
2023-03-10T01:28:15.597Z,16.95
2023-03-10T01:28:26.596Z,16.95
2023-03-10T01:28:38.589Z,16.96
2023-03-10T01:28:49.563Z,16.96
2023-03-10T01:29:00.593Z,16.96
2023-03-10T01:29:11.595Z,16.94
2023-03-10T01:29:22.580Z,16.96
2023-03-10T01:29:33.560Z,16.95
2023-03-10T01:29:44.638Z,16.96
2023-03-10T01:29:56.587Z,16.96
2023-03-10T01:30:07.575Z,16.96
2023-03-10T01:30:18.565Z,16.96
2023-03-10T01:30:29.577Z,16.97
2023-03-10T01:30:40.676Z,16.97
2023-03-10T01:30:52.646Z,16.96
2023-03-10T01:31:04.640Z,16.97
2023-03-10T01:31:15.756Z,16.97
2023-03-10T01:31:26.673Z,16.96
2023-03-10T01:31:37.617Z,16.97
2023-03-10T01:31:48.703Z,16.97
2023-03-10T01:31:59.614Z,16.97
2023-03-10T01:32:10.667Z,16.96
2023-03-10T01:32:22.640Z,16.96
2023-03-10T01:32:34.621Z,16.97
2023-03-10T01:32:46.676Z,16.96
2023-03-10T01:32:57.606Z,16.97
2023-03-10T01:33:08.596Z,16.97
2023-03-10T01:33:19.592Z,16.97
2023-03-10T01:33:30.586Z,16.96
2023-03-10T01:33:41.574Z,16.96
2023-03-10T01:33:52.595Z,16.95
2023-03-10T01:34:03.593Z,16.96
2023-03-10T01:34:14.571Z,16.96
2023-03-10T01:34:25.595Z,16.97
2023-03-10T01:34:36.593Z,16.97
2023-03-10T01:34:47.608Z,16.96
2023-03-10T01:34:58.636Z,16.97
2023-03-10T01:35:10.609Z,16.96
2023-03-10T01:35:21.614Z,16.96
2023-03-10T01:35:32.642Z,16.97
2023-03-10T01:35:43.651Z,16.96
2023-03-10T01:35:54.623Z,16.97
2023-03-10T01:36:05.679Z,16.94
2023-03-10T01:36:17.655Z,16.96
2023-03-10T01:36:29.582Z,16.96
2023-03-10T01:36:40.589Z,16.96
2023-03-10T01:36:51.561Z,16.96
2023-03-10T01:37:02.563Z,16.96
2023-03-10T01:37:13.645Z,16.96
2023-03-10T01:37:25.608Z,16.97
2023-03-10T01:37:36.603Z,16.94
2023-03-10T01:37:47.579Z,16.95
2023-03-10T01:37:58.554Z,16.95
2023-03-10T01:38:09.642Z,16.96
2023-03-10T01:38:21.582Z,16.96
2023-03-10T01:38:32.562Z,16.96
2023-03-10T01:38:43.563Z,16.97
2023-03-10T01:38:54.655Z,16.96
2023-03-10T01:39:06.618Z,16.96
2023-03-10T01:39:18.584Z,16.95
2023-03-10T01:39:29.570Z,16.96
2023-03-10T01:39:40.559Z,16.97
2023-03-10T01:39:51.554Z,16.96
2023-03-10T01:40:02.572Z,16.96
2023-03-10T01:40:13.580Z,16.96
2023-03-10T01:40:24.582Z,16.96
2023-03-10T01:40:35.576Z,16.97
2023-03-10T01:40:46.566Z,16.97
2023-03-10T01:40:57.569Z,16.97
2023-03-10T01:41:08.568Z,16.98
2023-03-10T01:41:19.649Z,16.98
2023-03-10T01:41:31.617Z,16.97
2023-03-10T01:41:43.597Z,16.97
2023-03-10T01:41:54.605Z,16.98
2023-03-10T01:42:05.591Z,16.97
2023-03-10T01:42:17.596Z,16.97
2023-03-10T01:42:28.590Z,16.96
2023-03-10T01:42:39.680Z,16.98
2023-03-10T01:42:50.569Z,16.97
2023-03-10T01:43:01.651Z,16.97
2023-03-10T01:43:13.599Z,16.98
2023-03-10T01:43:24.593Z,16.98
2023-03-10T01:43:35.617Z,16.98
2023-03-10T01:43:46.605Z,16.97
2023-03-10T01:43:57.589Z,16.98
2023-03-10T01:44:08.588Z,16.98
2023-03-10T01:44:19.584Z,16.97
2023-03-10T01:44:30.560Z,16.96
2023-03-10T01:44:41.633Z,16.97
2023-03-10T01:44:53.583Z,16.97
2023-03-10T01:45:04.579Z,16.97
2023-03-10T01:45:15.663Z,16.97
2023-03-10T01:45:27.640Z,16.96
2023-03-10T01:45:39.586Z,16.97
2023-03-10T01:45:50.574Z,16.97
2023-03-10T01:46:01.616Z,16.97
2023-03-10T01:46:12.648Z,16.97
2023-03-10T01:46:24.664Z,16.97
2023-03-10T01:46:36.664Z,16.97
2023-03-10T01:46:48.723Z,16.97
2023-03-10T01:47:00.745Z,16.96
2023-03-10T01:47:12.572Z,16.97
2023-03-10T01:47:23.580Z,16.97
2023-03-10T01:47:34.571Z,16.96
2023-03-10T01:47:45.555Z,16.97
2023-03-10T01:47:56.650Z,16.95
2023-03-10T01:48:08.592Z,16.96
2023-03-10T01:48:19.575Z,16.97
2023-03-10T01:48:30.565Z,16.97
2023-03-10T01:48:41.742Z,16.97
2023-03-10T01:48:53.589Z,16.97
2023-03-10T01:49:04.589Z,16.96
2023-03-10T01:49:15.582Z,16.97
2023-03-10T01:49:26.590Z,16.96
2023-03-10T01:49:37.595Z,16.97
2023-03-10T01:49:48.583Z,16.98
2023-03-10T01:49:59.583Z,16.96
2023-03-10T01:50:10.585Z,16.97
2023-03-10T01:50:22.586Z,16.97
2023-03-10T01:50:33.586Z,16.96
2023-03-10T01:50:44.614Z,16.97
2023-03-10T01:50:55.596Z,16.97
2023-03-10T01:51:06.590Z,16.97
2023-03-10T01:51:17.598Z,16.97
2023-03-10T01:51:28.610Z,16.96
2023-03-10T01:51:39.619Z,16.95
2023-03-10T01:51:50.613Z,16.95
2023-03-10T01:52:01.611Z,16.96
2023-03-10T01:52:12.603Z,16.97
2023-03-10T01:52:23.604Z,16.95
2023-03-10T01:52:34.590Z,16.98
2023-03-10T01:52:45.594Z,16.96
2023-03-10T01:52:56.627Z,16.97
2023-03-10T01:53:08.619Z,16.97
2023-03-10T01:53:20.589Z,16.97
2023-03-10T01:53:31.575Z,16.97
2023-03-10T01:53:42.574Z,16.98
2023-03-10T01:53:53.574Z,16.96
2023-03-10T01:54:04.568Z,16.97
2023-03-10T01:54:15.563Z,16.97
2023-03-10T01:54:26.645Z,16.96
2023-03-10T01:54:38.601Z,16.98
2023-03-10T01:54:49.927Z,16.96
2023-03-10T01:55:00.581Z,16.96
2023-03-10T01:55:11.565Z,16.97
2023-03-10T01:55:22.561Z,16.97
2023-03-10T01:55:33.643Z,16.95
2023-03-10T01:55:45.607Z,16.96
2023-03-10T01:55:56.591Z,16.98
2023-03-10T01:56:07.599Z,16.96
2023-03-10T01:56:18.584Z,16.96
2023-03-10T01:56:29.574Z,16.98
2023-03-10T01:56:40.571Z,16.97
2023-03-10T01:56:51.585Z,16.97
2023-03-10T01:57:02.569Z,16.97
2023-03-10T01:57:13.568Z,16.97
2023-03-10T01:57:24.575Z,16.97
2023-03-10T01:57:35.573Z,16.96
2023-03-10T01:57:46.581Z,16.97
2023-03-10T01:57:57.571Z,16.97
2023-03-10T01:58:08.561Z,16.97
2023-03-10T01:58:19.570Z,16.96
2023-03-10T01:58:30.648Z,16.97
2023-03-10T01:58:42.615Z,16.97
2023-03-10T01:58:53.602Z,16.97
2023-03-10T01:59:04.592Z,16.98
2023-03-10T01:59:15.589Z,16.97
2023-03-10T01:59:26.598Z,16.97
2023-03-10T01:59:37.581Z,16.96
2023-03-10T01:59:48.574Z,16.96
2023-03-10T01:59:59.565Z,16.96
2023-03-10T02:00:10.557Z,16.97
2023-03-10T02:00:21.664Z,16.97
2023-03-10T02:00:33.634Z,16.98
2023-03-10T02:00:45.649Z,16.98
2023-03-10T02:00:57.728Z,16.96
2023-03-10T02:01:09.619Z,16.97
2023-03-10T02:01:20.603Z,16.97
2023-03-10T02:01:31.630Z,16.96
2023-03-10T02:01:42.611Z,16.97
2023-03-10T02:01:53.662Z,16.97
2023-03-10T02:02:05.640Z,16.97
2023-03-10T02:02:16.684Z,16.98
2023-03-10T02:02:28.657Z,16.97
2023-03-10T02:02:40.624Z,16.97
2023-03-10T02:02:52.589Z,16.98
2023-03-10T02:03:03.592Z,16.97
2023-03-10T02:03:15.581Z,16.98
2023-03-10T02:03:26.569Z,16.96
2023-03-10T02:03:37.568Z,16.97
2023-03-10T02:03:48.651Z,16.97
2023-03-10T02:04:00.559Z,16.97
2023-03-10T02:04:11.650Z,16.98
2023-03-10T02:04:23.600Z,16.97
2023-03-10T02:04:34.590Z,16.96
2023-03-10T02:04:45.575Z,16.98
2023-03-10T02:04:56.568Z,16.97
2023-03-10T02:05:07.646Z,16.97
2023-03-10T02:05:19.632Z,16.97
2023-03-10T02:05:31.591Z,16.98
2023-03-10T02:05:42.575Z,16.95
2023-03-10T02:05:53.578Z,16.96
2023-03-10T02:06:04.600Z,16.96
2023-03-10T02:06:15.608Z,16.95
2023-03-10T02:06:26.610Z,16.96
2023-03-10T02:06:38.590Z,16.96
2023-03-10T02:07:56.559Z,16.86
2023-03-10T02:08:07.580Z,16.93
2023-03-10T02:08:18.586Z,16.96
2023-03-10T02:08:29.607Z,16.95
2023-03-10T02:08:42.389Z,16.93
2023-03-10T02:08:51.578Z,16.95
2023-03-10T02:09:02.570Z,16.96
2023-03-10T02:09:13.555Z,16.95
2023-03-10T02:09:24.657Z,16.96
2023-03-10T02:09:36.558Z,16.96
2023-03-10T02:09:47.570Z,16.96
2023-03-10T02:09:58.572Z,16.96
2023-03-10T02:10:09.566Z,16.96
2023-03-10T02:10:20.558Z,16.97
2023-03-10T02:10:31.572Z,16.97
2023-03-10T02:10:42.562Z,16.96
2023-03-10T02:10:53.606Z,16.99
2023-03-10T02:11:04.601Z,16.97
2023-03-10T02:11:15.590Z,16.96
2023-03-10T02:11:26.562Z,16.96
2023-03-10T02:11:37.557Z,16.97
2023-03-10T02:11:48.565Z,16.96
2023-03-10T02:11:59.561Z,16.98
2023-03-10T02:12:10.556Z,16.97
2023-03-10T02:12:21.576Z,16.97
2023-03-10T02:12:32.565Z,16.98
2023-03-10T02:12:43.555Z,16.98
2023-03-10T02:12:54.655Z,16.98
2023-03-10T02:13:06.597Z,17.00
2023-03-10T02:13:18.589Z,16.98
2023-03-10T02:13:29.576Z,16.97
2023-03-10T02:13:40.571Z,16.97
2023-03-10T02:13:51.572Z,16.97
2023-03-10T02:14:02.581Z,16.96
2023-03-10T02:14:13.561Z,16.96
2023-03-10T02:14:24.642Z,16.97
2023-03-10T02:14:36.599Z,16.97
2023-03-10T02:14:47.582Z,16.96
2023-03-10T02:14:58.561Z,16.98
2023-03-10T02:15:09.649Z,16.98
2023-03-10T02:15:21.618Z,16.98
2023-03-10T02:15:32.615Z,16.97
2023-03-10T02:15:43.613Z,16.97
2023-03-10T02:15:54.665Z,16.97
2023-03-10T02:16:05.638Z,16.98
2023-03-10T02:16:16.732Z,16.98
2023-03-10T02:16:28.632Z,16.98
2023-03-10T02:16:39.720Z,16.97
2023-03-10T02:16:50.564Z,16.97
2023-03-10T02:17:01.554Z,16.97
2023-03-10T02:17:12.562Z,16.97
2023-03-10T02:17:23.705Z,16.98
2023-03-10T02:17:35.655Z,16.97
2023-03-10T02:17:47.642Z,16.97
2023-03-10T02:17:59.665Z,16.97
2023-03-10T02:18:10.712Z,16.97
2023-03-10T02:18:22.591Z,16.97
2023-03-10T02:18:33.583Z,16.97
2023-03-10T02:18:44.604Z,16.97
2023-03-10T02:18:55.614Z,16.98
2023-03-10T02:19:06.615Z,16.98
2023-03-10T02:19:17.615Z,16.99
2023-03-10T02:19:28.598Z,16.99
2023-03-10T02:19:39.585Z,16.99
2023-03-10T02:19:50.575Z,16.98
2023-03-10T02:20:01.578Z,16.99
2023-03-10T02:20:12.567Z,16.99
2023-03-10T02:20:23.559Z,16.99
2023-03-10T02:20:34.646Z,16.98
2023-03-10T02:20:46.588Z,16.97
2023-03-10T02:20:57.579Z,16.98
2023-03-10T02:21:08.560Z,16.98
2023-03-10T02:21:19.652Z,16.98
2023-03-10T02:21:31.616Z,16.98
2023-03-10T02:21:43.593Z,16.99
2023-03-10T02:21:54.590Z,16.98
2023-03-10T02:22:05.576Z,16.99
2023-03-10T02:22:16.578Z,16.98
2023-03-10T02:22:27.580Z,16.98
2023-03-10T02:22:38.563Z,16.98
2023-03-10T02:22:49.578Z,16.99
2023-03-10T02:23:00.590Z,16.98
2023-03-10T02:23:11.582Z,17.00
2023-03-10T02:23:22.562Z,16.98
2023-03-10T02:23:33.649Z,16.99
2023-03-10T02:23:58.730Z,16.98
2023-03-10T02:24:01.427Z,17.00
2023-03-10T02:24:08.620Z,16.97
2023-03-10T02:24:20.605Z,16.99
2023-03-10T02:24:31.586Z,17.00
2023-03-10T02:24:42.613Z,17.00
2023-03-10T02:24:53.609Z,16.99
2023-03-10T02:25:04.608Z,16.98
2023-03-10T02:25:15.598Z,17.00
2023-03-10T02:25:26.589Z,17.00
2023-03-10T02:25:37.603Z,16.99
2023-03-10T02:25:48.584Z,17.00
2023-03-10T02:25:59.576Z,17.00
2023-03-10T02:26:10.561Z,16.99
2023-03-10T02:26:21.641Z,16.99
2023-03-10T02:26:33.625Z,16.99
2023-03-10T02:26:44.614Z,16.99
2023-03-10T02:26:55.601Z,16.99
2023-03-10T02:27:06.597Z,16.99
2023-03-10T02:27:17.585Z,16.98
2023-03-10T02:27:28.578Z,16.99
2023-03-10T02:27:39.581Z,16.99
2023-03-10T02:27:50.599Z,16.99
2023-03-10T02:28:01.600Z,16.99
2023-03-10T02:28:12.587Z,16.99
2023-03-10T02:28:23.572Z,17.00
2023-03-10T02:28:34.582Z,16.99
2023-03-10T02:28:45.574Z,17.00
2023-03-10T02:28:56.659Z,17.00
2023-03-10T02:29:08.613Z,17.00
2023-03-10T02:29:19.606Z,16.99
2023-03-10T02:29:30.592Z,17.00
2023-03-10T02:29:52.517Z,17.00
2023-03-10T02:29:59.193Z,16.99
2023-03-10T02:30:05.607Z,16.98
2023-03-10T02:30:16.610Z,16.99
2023-03-10T02:30:27.584Z,16.99
2023-03-10T02:30:38.583Z,17.00
2023-03-10T02:30:49.601Z,17.00
2023-03-10T02:31:00.597Z,17.00
2023-03-10T02:31:11.637Z,17.01
2023-03-10T02:31:23.624Z,17.01
2023-03-10T02:31:35.639Z,17.01
2023-03-10T02:31:46.621Z,17.00
2023-03-10T02:31:57.571Z,17.00
2023-03-10T02:32:08.565Z,17.00
2023-03-10T02:32:19.719Z,17.00
2023-03-10T02:32:31.669Z,17.00
2023-03-10T02:32:42.665Z,17.01
2023-03-10T02:32:54.757Z,17.00
2023-03-10T02:33:06.627Z,17.00
2023-03-10T02:33:17.623Z,16.99
2023-03-10T02:33:28.617Z,16.99
2023-03-10T02:33:39.604Z,17.00
2023-03-10T02:33:50.585Z,17.00
2023-03-10T02:34:01.577Z,16.99
2023-03-10T02:34:13.605Z,17.00
2023-03-10T02:34:24.607Z,17.00
2023-03-10T02:34:35.584Z,16.99
2023-03-10T02:34:46.587Z,16.98
2023-03-10T02:34:57.572Z,17.00
2023-03-10T02:35:08.562Z,16.99
2023-03-10T02:35:19.570Z,16.99
2023-03-10T02:35:30.565Z,16.99
2023-03-10T02:35:41.692Z,17.00
2023-03-10T02:35:53.601Z,17.00
2023-03-10T02:36:04.694Z,16.98
2023-03-10T02:36:16.556Z,17.00
2023-03-10T02:36:27.635Z,16.98
2023-03-10T02:36:39.585Z,16.99
2023-03-10T02:36:50.597Z,16.99
2023-03-10T02:37:01.602Z,16.98
2023-03-10T02:37:12.598Z,16.99
2023-03-10T02:37:23.595Z,16.99
2023-03-10T02:37:34.597Z,16.99
2023-03-10T02:37:45.600Z,16.99
2023-03-10T02:37:56.598Z,16.99
2023-03-10T02:38:07.618Z,16.99
2023-03-10T02:38:18.600Z,16.99
2023-03-10T02:38:29.592Z,16.99
2023-03-10T02:38:40.583Z,17.00
2023-03-10T02:38:51.576Z,16.98
2023-03-10T02:39:02.568Z,16.98
2023-03-10T02:39:13.584Z,16.99
2023-03-10T02:39:24.579Z,17.00
2023-03-10T02:39:35.561Z,16.99
2023-03-10T02:39:46.564Z,16.99
2023-03-10T02:39:57.560Z,16.98
2023-03-10T02:40:08.649Z,17.00
2023-03-10T02:40:20.589Z,16.99
2023-03-10T02:40:31.583Z,17.00
2023-03-10T02:40:42.572Z,17.00
2023-03-10T02:40:53.577Z,17.00
2023-03-10T02:41:04.566Z,16.99
2023-03-10T02:41:15.651Z,16.99
2023-03-10T02:41:27.631Z,16.99
2023-03-10T02:41:38.633Z,16.99
2023-03-10T02:41:50.585Z,16.98
2023-03-10T02:42:01.580Z,16.99
2023-03-10T02:42:12.582Z,16.98
2023-03-10T02:42:23.581Z,16.98
2023-03-10T02:42:34.586Z,16.99
2023-03-10T02:42:45.594Z,16.99
2023-03-10T02:42:56.581Z,16.97
2023-03-10T02:43:07.603Z,16.99
2023-03-10T02:43:18.645Z,16.99
2023-03-10T02:43:29.592Z,16.99
2023-03-10T02:43:40.601Z,16.98
2023-03-10T02:43:51.597Z,16.99
2023-03-10T02:44:02.579Z,16.99
2023-03-10T02:44:13.563Z,17.00
2023-03-10T02:44:24.571Z,16.98
2023-03-10T02:44:35.650Z,16.97
2023-03-10T02:44:47.609Z,16.99
2023-03-10T02:44:58.599Z,16.99
2023-03-10T02:45:09.587Z,16.98
2023-03-10T02:45:20.594Z,16.99
2023-03-10T02:45:31.642Z,16.98
2023-03-10T02:45:42.678Z,16.99
2023-03-10T02:45:54.656Z,17.00
2023-03-10T02:46:05.666Z,17.01
2023-03-10T02:46:16.660Z,17.00
2023-03-10T02:46:27.589Z,17.00
2023-03-10T02:46:38.577Z,17.00
2023-03-10T02:46:49.606Z,17.01
2023-03-10T02:47:00.636Z,17.01
2023-03-10T02:47:12.616Z,17.01
2023-03-10T02:47:23.619Z,17.01
2023-03-10T02:47:34.613Z,17.00
2023-03-10T02:47:45.600Z,17.00
2023-03-10T02:47:56.594Z,17.02
2023-03-10T02:48:07.586Z,17.01
2023-03-10T02:48:18.583Z,16.99
2023-03-10T02:48:29.578Z,17.00
2023-03-10T02:48:40.609Z,17.00
2023-03-10T02:48:51.598Z,16.99
2023-03-10T02:49:02.582Z,16.99
2023-03-10T02:49:13.652Z,16.99
2023-03-10T02:49:25.608Z,16.99
2023-03-10T02:49:36.579Z,17.01
2023-03-10T02:49:47.580Z,17.01
2023-03-10T02:49:58.585Z,17.01
2023-03-10T02:50:09.567Z,16.99
2023-03-10T02:50:20.562Z,17.00
2023-03-10T02:50:31.570Z,17.00
2023-03-10T02:50:42.561Z,17.01
2023-03-10T02:50:53.558Z,17.01
2023-03-10T02:51:04.574Z,17.01
2023-03-10T02:51:15.570Z,17.00
2023-03-10T02:51:26.577Z,17.00
2023-03-10T02:51:37.596Z,16.99
2023-03-10T02:51:48.579Z,17.00
2023-03-10T02:51:59.568Z,16.99
2023-03-10T02:52:10.576Z,17.00
2023-03-10T02:52:21.577Z,17.00
2023-03-10T02:52:32.561Z,17.01
2023-03-10T02:52:43.643Z,17.00
2023-03-10T02:52:55.600Z,17.02
2023-03-10T02:53:06.590Z,17.01
2023-03-10T02:53:17.572Z,17.01
2023-03-10T02:53:28.656Z,16.99
2023-03-10T02:53:40.626Z,17.00
2023-03-10T02:53:51.616Z,17.00
2023-03-10T02:54:02.617Z,17.01
2023-03-10T02:54:13.598Z,17.01
2023-03-10T02:54:24.586Z,17.00
2023-03-10T02:54:35.562Z,17.01
2023-03-10T02:54:46.652Z,17.01
2023-03-10T02:54:58.609Z,17.01
2023-03-10T02:55:09.606Z,17.01
2023-03-10T02:55:20.623Z,17.01
2023-03-10T02:55:32.582Z,17.00
2023-03-10T02:55:43.598Z,17.01
2023-03-10T02:55:54.584Z,17.01
2023-03-10T02:56:06.588Z,17.01
2023-03-10T02:56:17.574Z,17.02
2023-03-10T02:56:28.562Z,17.02
2023-03-10T02:56:39.645Z,17.00
2023-03-10T02:56:51.597Z,17.00
2023-03-10T02:57:02.592Z,17.01
2023-03-10T02:57:13.608Z,17.01
2023-03-10T02:57:24.611Z,17.01
2023-03-10T02:57:36.592Z,17.02
2023-03-10T02:57:47.594Z,17.01
2023-03-10T02:57:58.588Z,17.00
2023-03-10T02:58:09.580Z,17.01
2023-03-10T02:58:20.565Z,17.01
2023-03-10T02:58:31.559Z,17.02
2023-03-10T02:58:42.569Z,17.03
2023-03-10T02:58:53.561Z,17.01
2023-03-10T02:59:04.653Z,17.01
2023-03-10T02:59:16.598Z,17.01
2023-03-10T02:59:27.574Z,17.00
2023-03-10T02:59:38.574Z,17.00
2023-03-10T02:59:49.575Z,17.01
2023-03-10T03:00:00.599Z,17.01
2023-03-10T03:00:11.589Z,17.01